sensor_id;sensor_type;location;lat;lon;timestamp;temperature;humidity
35246;DHT22;21379;50.962;6.960;2022-11-20T00:00:39;3.50;99.90
35246;DHT22;21379;50.962;6.960;2022-11-20T00:03:05;3.50;99.90
35246;DHT22;21379;50.962;6.960;2022-11-20T00:05:32;3.50;99.90
35246;DHT22;21379;50.962;6.960;2022-11-20T00:07:59;3.50;99.90
35246;DHT22;21379;50.962;6.960;2022-11-20T00:10:26;3.50;99.90
35246;DHT22;21379;50.962;6.960;2022-11-20T00:12:53;3.50;99.90
35246;DHT22;21379;50.962;6.960;2022-11-20T00:15:21;3.50;99.90
35246;DHT22;21379;50.962;6.960;2022-11-20T00:17:48;3.50;99.90
35246;DHT22;21379;50.962;6.960;2022-11-20T00:20:15;3.50;99.90
35246;DHT22;21379;50.962;6.960;2022-11-20T00:22:41;3.50;99.90
35246;DHT22;21379;50.962;6.960;2022-11-20T00:25:08;3.50;99.90
35246;DHT22;21379;50.962;6.960;2022-11-20T00:27:35;3.50;99.90
35246;DHT22;21379;50.962;6.960;2022-11-20T00:30:02;3.50;99.90
35246;DHT22;21379;50.962;6.960;2022-11-20T00:32:30;3.50;99.90
35246;DHT22;21379;50.962;6.960;2022-11-20T00:34:57;3.50;99.90
35246;DHT22;21379;50.962;6.960;2022-11-20T00:37:24;3.50;99.90
35246;DHT22;21379;50.962;6.960;2022-11-20T00:39:51;3.50;99.90
35246;DHT22;21379;50.962;6.960;2022-11-20T00:42:18;3.50;99.90
35246;DHT22;21379;50.962;6.960;2022-11-20T00:44:45;3.50;99.90
35246;DHT22;21379;50.962;6.960;2022-11-20T00:47:11;3.50;99.90
35246;DHT22;21379;50.962;6.960;2022-11-20T00:49:40;3.50;99.90
35246;DHT22;21379;50.962;6.960;2022-11-20T00:52:06;3.60;99.90
35246;DHT22;21379;50.962;6.960;2022-11-20T00:54:33;3.50;99.90
35246;DHT22;21379;50.962;6.960;2022-11-20T00:57:00;3.50;99.90
35246;DHT22;21379;50.962;6.960;2022-11-20T00:59:27;3.50;99.90
35246;DHT22;21379;50.962;6.960;2022-11-20T01:01:54;3.50;99.90
35246;DHT22;21379;50.962;6.960;2022-11-20T01:04:21;3.50;99.90
35246;DHT22;21379;50.962;6.960;2022-11-20T01:06:49;3.50;99.90
35246;DHT22;21379;50.962;6.960;2022-11-20T01:09:16;3.50;99.90
35246;DHT22;21379;50.962;6.960;2022-11-20T01:11:44;3.40;99.90
35246;DHT22;21379;50.962;6.960;2022-11-20T01:14:13;3.50;99.90
35246;DHT22;21379;50.962;6.960;2022-11-20T01:16:42;3.40;99.90
35246;DHT22;21379;50.962;6.960;2022-11-20T01:19:10;3.50;99.90
35246;DHT22;21379;50.962;6.960;2022-11-20T01:21:39;3.50;99.90
35246;DHT22;21379;50.962;6.960;2022-11-20T01:24:10;3.50;99.90
35246;DHT22;21379;50.962;6.960;2022-11-20T01:26:38;3.50;99.90
35246;DHT22;21379;50.962;6.960;2022-11-20T01:29:06;3.40;99.90
35246;DHT22;21379;50.962;6.960;2022-11-20T01:31:34;3.40;99.90
35246;DHT22;21379;50.962;6.960;2022-11-20T01:34:03;3.50;99.90
35246;DHT22;21379;50.962;6.960;2022-11-20T01:36:31;3.50;99.90
35246;DHT22;21379;50.962;6.960;2022-11-20T01:39:00;3.50;99.90
35246;DHT22;21379;50.962;6.960;2022-11-20T01:41:30;3.40;99.90
35246;DHT22;21379;50.962;6.960;2022-11-20T01:44:16;3.40;99.90
35246;DHT22;21379;50.962;6.960;2022-11-20T01:46:52;3.40;99.90
35246;DHT22;21379;50.962;6.960;2022-11-20T01:49:26;3.40;99.90
35246;DHT22;21379;50.962;6.960;2022-11-20T01:51:57;3.50;99.90
35246;DHT22;21379;50.962;6.960;2022-11-20T01:54:29;3.50;99.90
35246;DHT22;21379;50.962;6.960;2022-11-20T01:57:00;3.50;99.90
35246;DHT22;21379;50.962;6.960;2022-11-20T01:59:29;3.40;99.90
35246;DHT22;21379;50.962;6.960;2022-11-20T02:01:56;3.40;99.90
35246;DHT22;21379;50.962;6.960;2022-11-20T02:04:23;3.50;99.90
35246;DHT22;21379;50.962;6.960;2022-11-20T02:06:55;3.40;99.90
35246;DHT22;21379;50.962;6.960;2022-11-20T02:09:24;3.40;99.90
35246;DHT22;21379;50.962;6.960;2022-11-20T02:11:51;3.50;99.90
35246;DHT22;21379;50.962;6.960;2022-11-20T02:14:19;3.50;99.90
35246;DHT22;21379;50.962;6.960;2022-11-20T02:16:47;3.50;99.90
35246;DHT22;21379;50.962;6.960;2022-11-20T02:19:22;3.60;99.90
35246;DHT22;21379;50.962;6.960;2022-11-20T02:21:56;3.60;99.90
35246;DHT22;21379;50.962;6.960;2022-11-20T02:24:27;3.50;99.90
35246;DHT22;21379;50.962;6.960;2022-11-20T02:26:56;3.60;99.90
35246;DHT22;21379;50.962;6.960;2022-11-20T02:29:25;3.50;99.90
35246;DHT22;21379;50.962;6.960;2022-11-20T02:31:55;3.50;99.90
35246;DHT22;21379;50.962;6.960;2022-11-20T02:34:22;3.50;99.90
35246;DHT22;21379;50.962;6.960;2022-11-20T02:36:50;3.50;99.90
35246;DHT22;21379;50.962;6.960;2022-11-20T02:39:19;3.50;99.90
35246;DHT22;21379;50.962;6.960;2022-11-20T02:41:48;3.50;99.90
35246;DHT22;21379;50.962;6.960;2022-11-20T02:44:15;3.50;99.90
35246;DHT22;21379;50.962;6.960;2022-11-20T02:46:41;3.50;99.90
35246;DHT22;21379;50.962;6.960;2022-11-20T02:49:08;3.50;99.90
35246;DHT22;21379;50.962;6.960;2022-11-20T02:51:35;3.50;99.90
35246;DHT22;21379;50.962;6.960;2022-11-20T02:54:02;3.40;99.90
35246;DHT22;21379;50.962;6.960;2022-11-20T02:56:30;3.40;99.90
35246;DHT22;21379;50.962;6.960;2022-11-20T02:58:58;3.50;99.90
35246;DHT22;21379;50.962;6.960;2022-11-20T03:01:25;3.50;99.90
35246;DHT22;21379;50.962;6.960;2022-11-20T03:03:51;3.50;99.90
35246;DHT22;21379;50.962;6.960;2022-11-20T03:06:20;3.50;99.90
35246;DHT22;21379;50.962;6.960;2022-11-20T03:08:47;3.50;99.90
35246;DHT22;21379;50.962;6.960;2022-11-20T03:11:13;3.40;99.90
35246;DHT22;21379;50.962;6.960;2022-11-20T03:13:40;3.40;99.90
35246;DHT22;21379;50.962;6.960;2022-11-20T03:16:11;3.40;99.90
35246;DHT22;21379;50.962;6.960;2022-11-20T03:18:38;3.40;99.90
35246;DHT22;21379;50.962;6.960;2022-11-20T03:21:06;3.40;99.90
35246;DHT22;21379;50.962;6.960;2022-11-20T03:23:33;3.40;99.90
35246;DHT22;21379;50.962;6.960;2022-11-20T03:26:12;3.40;99.90
35246;DHT22;21379;50.962;6.960;2022-11-20T03:28:39;3.40;99.90
35246;DHT22;21379;50.962;6.960;2022-11-20T03:31:09;3.40;99.90
35246;DHT22;21379;50.962;6.960;2022-11-20T03:33:37;3.40;99.90
35246;DHT22;21379;50.962;6.960;2022-11-20T03:36:04;3.40;99.90
35246;DHT22;21379;50.962;6.960;2022-11-20T03:38:32;3.40;99.90
35246;DHT22;21379;50.962;6.960;2022-11-20T03:41:00;3.40;99.90
35246;DHT22;21379;50.962;6.960;2022-11-20T03:43:27;3.40;99.90
35246;DHT22;21379;50.962;6.960;2022-11-20T03:45:54;3.40;99.90
35246;DHT22;21379;50.962;6.960;2022-11-20T03:48:23;3.40;99.90
35246;DHT22;21379;50.962;6.960;2022-11-20T03:50:49;3.40;99.90
35246;DHT22;21379;50.962;6.960;2022-11-20T03:53:19;3.40;99.90
35246;DHT22;21379;50.962;6.960;2022-11-20T03:55:50;3.40;99.90
35246;DHT22;21379;50.962;6.960;2022-11-20T03:58:17;3.40;99.90
35246;DHT22;21379;50.962;6.960;2022-11-20T04:00:44;3.40;99.90
35246;DHT22;21379;50.962;6.960;2022-11-20T04:03:11;3.40;99.90
35246;DHT22;21379;50.962;6.960;2022-11-20T04:05:39;3.50;99.90
35246;DHT22;21379;50.962;6.960;2022-11-20T04:08:06;3.40;99.90
35246;DHT22;21379;50.962;6.960;2022-11-20T04:10:33;3.40;99.90
35246;DHT22;21379;50.962;6.960;2022-11-20T04:13:00;3.40;99.90
35246;DHT22;21379;50.962;6.960;2022-11-20T04:15:27;3.40;99.90
35246;DHT22;21379;50.962;6.960;2022-11-20T04:17:54;3.40;99.90
35246;DHT22;21379;50.962;6.960;2022-11-20T04:20:20;3.30;99.90
35246;DHT22;21379;50.962;6.960;2022-11-20T04:22:49;3.30;99.90
35246;DHT22;21379;50.962;6.960;2022-11-20T04:25:15;3.20;99.90
35246;DHT22;21379;50.962;6.960;2022-11-20T04:27:42;3.10;99.90
35246;DHT22;21379;50.962;6.960;2022-11-20T04:30:10;3.10;99.90
35246;DHT22;21379;50.962;6.960;2022-11-20T04:32:37;3.00;99.90
35246;DHT22;21379;50.962;6.960;2022-11-20T04:35:04;3.00;99.90
35246;DHT22;21379;50.962;6.960;2022-11-20T04:37:31;2.90;99.90
35246;DHT22;21379;50.962;6.960;2022-11-20T04:39:59;2.90;99.90
35246;DHT22;21379;50.962;6.960;2022-11-20T04:42:26;2.90;99.90
35246;DHT22;21379;50.962;6.960;2022-11-20T04:44:56;2.90;99.90
35246;DHT22;21379;50.962;6.960;2022-11-20T04:47:23;2.90;99.90
35246;DHT22;21379;50.962;6.960;2022-11-20T04:49:49;2.90;99.90
35246;DHT22;21379;50.962;6.960;2022-11-20T04:52:16;2.80;99.90
35246;DHT22;21379;50.962;6.960;2022-11-20T04:54:43;2.80;99.90
35246;DHT22;21379;50.962;6.960;2022-11-20T04:57:13;2.80;99.90
35246;DHT22;21379;50.962;6.960;2022-11-20T04:59:40;2.80;99.90
35246;DHT22;21379;50.962;6.960;2022-11-20T05:02:06;2.80;99.90
35246;DHT22;21379;50.962;6.960;2022-11-20T05:04:33;2.90;99.90
35246;DHT22;21379;50.962;6.960;2022-11-20T05:07:00;3.00;99.90
35246;DHT22;21379;50.962;6.960;2022-11-20T05:09:27;3.10;99.90
35246;DHT22;21379;50.962;6.960;2022-11-20T05:11:53;3.10;99.90
35246;DHT22;21379;50.962;6.960;2022-11-20T05:14:21;3.20;99.90
35246;DHT22;21379;50.962;6.960;2022-11-20T05:16:48;3.20;99.90
35246;DHT22;21379;50.962;6.960;2022-11-20T05:19:15;3.30;99.90
35246;DHT22;21379;50.962;6.960;2022-11-20T05:21:42;3.30;99.90
35246;DHT22;21379;50.962;6.960;2022-11-20T05:24:09;3.30;99.90
35246;DHT22;21379;50.962;6.960;2022-11-20T05:26:36;3.30;99.90
35246;DHT22;21379;50.962;6.960;2022-11-20T05:29:03;3.40;99.90
35246;DHT22;21379;50.962;6.960;2022-11-20T05:31:31;3.40;99.90
35246;DHT22;21379;50.962;6.960;2022-11-20T05:33:58;3.50;99.90
35246;DHT22;21379;50.962;6.960;2022-11-20T05:36:25;3.40;99.90
35246;DHT22;21379;50.962;6.960;2022-11-20T05:38:51;3.50;99.90
35246;DHT22;21379;50.962;6.960;2022-11-20T05:41:20;3.50;99.90
35246;DHT22;21379;50.962;6.960;2022-11-20T05:43:48;3.40;99.90
35246;DHT22;21379;50.962;6.960;2022-11-20T05:46:17;3.40;99.90
35246;DHT22;21379;50.962;6.960;2022-11-20T05:48:46;3.40;99.90
35246;DHT22;21379;50.962;6.960;2022-11-20T05:51:15;3.40;99.90
35246;DHT22;21379;50.962;6.960;2022-11-20T05:53:42;3.50;99.90
35246;DHT22;21379;50.962;6.960;2022-11-20T05:56:10;3.50;99.90
35246;DHT22;21379;50.962;6.960;2022-11-20T05:58:38;3.40;99.90
35246;DHT22;21379;50.962;6.960;2022-11-20T06:01:06;3.40;99.90
35246;DHT22;21379;50.962;6.960;2022-11-20T06:03:34;3.40;99.90
35246;DHT22;21379;50.962;6.960;2022-11-20T06:06:03;3.40;99.90
35246;DHT22;21379;50.962;6.960;2022-11-20T06:08:30;3.40;99.90
35246;DHT22;21379;50.962;6.960;2022-11-20T06:10:58;3.30;99.90
35246;DHT22;21379;50.962;6.960;2022-11-20T06:13:24;3.40;99.90
35246;DHT22;21379;50.962;6.960;2022-11-20T06:15:52;3.40;99.90
35246;DHT22;21379;50.962;6.960;2022-11-20T06:18:19;3.40;99.90
35246;DHT22;21379;50.962;6.960;2022-11-20T06:20:46;3.40;99.90
35246;DHT22;21379;50.962;6.960;2022-11-20T06:23:14;3.40;99.90
35246;DHT22;21379;50.962;6.960;2022-11-20T06:25:42;3.30;99.90
35246;DHT22;21379;50.962;6.960;2022-11-20T06:28:09;3.30;99.90
35246;DHT22;21379;50.962;6.960;2022-11-20T06:30:36;3.20;99.90
35246;DHT22;21379;50.962;6.960;2022-11-20T06:33:03;3.20;99.90
35246;DHT22;21379;50.962;6.960;2022-11-20T06:35:30;3.10;99.90
35246;DHT22;21379;50.962;6.960;2022-11-20T06:37:57;3.00;99.90
35246;DHT22;21379;50.962;6.960;2022-11-20T06:40:25;3.00;99.90
35246;DHT22;21379;50.962;6.960;2022-11-20T06:42:53;2.90;99.90
35246;DHT22;21379;50.962;6.960;2022-11-20T06:45:21;2.90;99.90
35246;DHT22;21379;50.962;6.960;2022-11-20T06:47:48;2.90;99.90
35246;DHT22;21379;50.962;6.960;2022-11-20T06:50:15;2.90;99.90
35246;DHT22;21379;50.962;6.960;2022-11-20T06:52:41;2.90;99.90
35246;DHT22;21379;50.962;6.960;2022-11-20T06:55:08;3.00;99.90
35246;DHT22;21379;50.962;6.960;2022-11-20T06:57:36;3.00;99.90
35246;DHT22;21379;50.962;6.960;2022-11-20T07:00:04;3.10;99.90
35246;DHT22;21379;50.962;6.960;2022-11-20T07:02:31;3.10;99.90
35246;DHT22;21379;50.962;6.960;2022-11-20T07:04:58;3.10;99.90
35246;DHT22;21379;50.962;6.960;2022-11-20T07:07:24;3.10;99.90
35246;DHT22;21379;50.962;6.960;2022-11-20T07:09:51;3.00;99.90
35246;DHT22;21379;50.962;6.960;2022-11-20T07:12:18;3.10;99.90
35246;DHT22;21379;50.962;6.960;2022-11-20T07:14:46;3.10;99.90
35246;DHT22;21379;50.962;6.960;2022-11-20T07:17:13;3.10;99.90
35246;DHT22;21379;50.962;6.960;2022-11-20T07:19:40;3.20;99.90
35246;DHT22;21379;50.962;6.960;2022-11-20T07:22:08;3.10;99.90
35246;DHT22;21379;50.962;6.960;2022-11-20T07:24:35;3.20;99.90
35246;DHT22;21379;50.962;6.960;2022-11-20T07:27:02;3.20;99.90
35246;DHT22;21379;50.962;6.960;2022-11-20T07:29:29;3.20;99.90
35246;DHT22;21379;50.962;6.960;2022-11-20T07:31:57;3.20;99.90
35246;DHT22;21379;50.962;6.960;2022-11-20T07:34:24;3.30;99.90
35246;DHT22;21379;50.962;6.960;2022-11-20T07:36:51;3.30;99.90
35246;DHT22;21379;50.962;6.960;2022-11-20T07:39:18;3.30;99.90
35246;DHT22;21379;50.962;6.960;2022-11-20T07:41:45;3.40;99.90
35246;DHT22;21379;50.962;6.960;2022-11-20T07:44:11;3.40;99.90
35246;DHT22;21379;50.962;6.960;2022-11-20T07:46:38;3.50;99.90
35246;DHT22;21379;50.962;6.960;2022-11-20T07:49:06;3.50;99.90
35246;DHT22;21379;50.962;6.960;2022-11-20T07:51:33;3.60;99.90
35246;DHT22;21379;50.962;6.960;2022-11-20T07:54:00;3.60;99.90
35246;DHT22;21379;50.962;6.960;2022-11-20T07:56:27;3.60;99.90
35246;DHT22;21379;50.962;6.960;2022-11-20T07:58:54;3.70;99.90
35246;DHT22;21379;50.962;6.960;2022-11-20T08:01:20;3.80;99.90
35246;DHT22;21379;50.962;6.960;2022-11-20T08:03:47;3.80;99.90
35246;DHT22;21379;50.962;6.960;2022-11-20T08:06:15;3.80;99.90
35246;DHT22;21379;50.962;6.960;2022-11-20T08:08:44;3.80;99.90
35246;DHT22;21379;50.962;6.960;2022-11-20T08:11:10;3.90;99.90
35246;DHT22;21379;50.962;6.960;2022-11-20T08:13:55;3.90;99.90
35246;DHT22;21379;50.962;6.960;2022-11-20T08:16:42;3.90;99.90
35246;DHT22;21379;50.962;6.960;2022-11-20T08:19:09;4.00;99.90
35246;DHT22;21379;50.962;6.960;2022-11-20T08:21:37;4.00;99.90
35246;DHT22;21379;50.962;6.960;2022-11-20T08:24:05;4.00;99.90
35246;DHT22;21379;50.962;6.960;2022-11-20T08:26:32;4.10;99.90
35246;DHT22;21379;50.962;6.960;2022-11-20T08:28:59;4.10;99.90
35246;DHT22;21379;50.962;6.960;2022-11-20T08:31:27;4.20;99.90
35246;DHT22;21379;50.962;6.960;2022-11-20T08:33:54;4.20;99.90
35246;DHT22;21379;50.962;6.960;2022-11-20T08:36:22;4.20;99.90
35246;DHT22;21379;50.962;6.960;2022-11-20T08:38:52;4.20;99.90
35246;DHT22;21379;50.962;6.960;2022-11-20T08:41:20;4.30;99.90
35246;DHT22;21379;50.962;6.960;2022-11-20T08:43:52;4.30;99.90
35246;DHT22;21379;50.962;6.960;2022-11-20T08:46:19;4.40;99.90
35246;DHT22;21379;50.962;6.960;2022-11-20T08:48:46;4.40;99.90
35246;DHT22;21379;50.962;6.960;2022-11-20T08:51:13;4.50;99.90
35246;DHT22;21379;50.962;6.960;2022-11-20T08:53:40;4.50;99.90
35246;DHT22;21379;50.962;6.960;2022-11-20T08:56:09;4.50;99.90
35246;DHT22;21379;50.962;6.960;2022-11-20T08:58:36;4.50;99.90
35246;DHT22;21379;50.962;6.960;2022-11-20T09:01:03;4.60;99.90
35246;DHT22;21379;50.962;6.960;2022-11-20T09:03:30;4.70;99.90
35246;DHT22;21379;50.962;6.960;2022-11-20T09:05:58;4.70;99.90
35246;DHT22;21379;50.962;6.960;2022-11-20T09:08:25;4.80;99.90
35246;DHT22;21379;50.962;6.960;2022-11-20T09:10:52;4.70;99.90
35246;DHT22;21379;50.962;6.960;2022-11-20T09:13:21;4.60;99.90
35246;DHT22;21379;50.962;6.960;2022-11-20T09:15:53;4.70;99.90
35246;DHT22;21379;50.962;6.960;2022-11-20T09:18:20;4.60;99.90
35246;DHT22;21379;50.962;6.960;2022-11-20T09:20:47;4.70;99.90
35246;DHT22;21379;50.962;6.960;2022-11-20T09:23:14;4.70;99.90
35246;DHT22;21379;50.962;6.960;2022-11-20T09:25:41;4.70;99.90
35246;DHT22;21379;50.962;6.960;2022-11-20T09:28:08;4.70;99.90
35246;DHT22;21379;50.962;6.960;2022-11-20T09:30:36;4.70;99.90
35246;DHT22;21379;50.962;6.960;2022-11-20T09:33:04;4.90;99.90
35246;DHT22;21379;50.962;6.960;2022-11-20T09:35:31;5.00;99.90
35246;DHT22;21379;50.962;6.960;2022-11-20T09:37:58;5.00;99.90
35246;DHT22;21379;50.962;6.960;2022-11-20T09:40:27;5.10;99.90
35246;DHT22;21379;50.962;6.960;2022-11-20T09:42:58;5.20;99.90
35246;DHT22;21379;50.962;6.960;2022-11-20T09:45:39;5.50;99.90
35246;DHT22;21379;50.962;6.960;2022-11-20T09:48:34;5.30;99.90
35246;DHT22;21379;50.962;6.960;2022-11-20T09:51:07;5.40;99.90
35246;DHT22;21379;50.962;6.960;2022-11-20T09:53:44;5.50;99.90
35246;DHT22;21379;50.962;6.960;2022-11-20T09:56:12;5.60;99.90
35246;DHT22;21379;50.962;6.960;2022-11-20T09:58:42;5.60;99.90
35246;DHT22;21379;50.962;6.960;2022-11-20T10:01:14;5.50;99.90
35246;DHT22;21379;50.962;6.960;2022-11-20T10:03:49;5.60;99.90
35246;DHT22;21379;50.962;6.960;2022-11-20T10:06:28;5.50;99.90
35246;DHT22;21379;50.962;6.960;2022-11-20T10:09:04;5.50;99.90
35246;DHT22;21379;50.962;6.960;2022-11-20T10:11:39;5.50;99.90
35246;DHT22;21379;50.962;6.960;2022-11-20T10:14:19;5.50;99.90
35246;DHT22;21379;50.962;6.960;2022-11-20T10:16:57;5.40;99.90
35246;DHT22;21379;50.962;6.960;2022-11-20T10:19:45;5.40;99.90
35246;DHT22;21379;50.962;6.960;2022-11-20T10:22:34;5.30;99.90
35246;DHT22;21379;50.962;6.960;2022-11-20T10:25:08;5.20;99.90
35246;DHT22;21379;50.962;6.960;2022-11-20T10:30:42;5.20;99.90
35246;DHT22;21379;50.962;6.960;2022-11-20T10:33:16;5.20;99.90
35246;DHT22;21379;50.962;6.960;2022-11-20T10:35:45;5.10;99.90
35246;DHT22;21379;50.962;6.960;2022-11-20T10:38:20;5.10;99.90
35246;DHT22;21379;50.962;6.960;2022-11-20T10:40:50;5.20;99.90
35246;DHT22;21379;50.962;6.960;2022-11-20T10:43:23;5.30;99.90
35246;DHT22;21379;50.962;6.960;2022-11-20T10:45:57;5.40;99.90
35246;DHT22;21379;50.962;6.960;2022-11-20T10:48:27;5.50;99.90
35246;DHT22;21379;50.962;6.960;2022-11-20T10:51:13;5.60;99.90
35246;DHT22;21379;50.962;6.960;2022-11-20T10:54:09;5.60;99.90
35246;DHT22;21379;50.962;6.960;2022-11-20T10:56:41;5.60;99.90
35246;DHT22;21379;50.962;6.960;2022-11-20T11:02:01;5.60;99.90
35246;DHT22;21379;50.962;6.960;2022-11-20T11:04:35;5.50;99.90
35246;DHT22;21379;50.962;6.960;2022-11-20T11:07:09;5.50;99.90
35246;DHT22;21379;50.962;6.960;2022-11-20T11:09:40;5.40;99.90
35246;DHT22;21379;50.962;6.960;2022-11-20T11:12:08;5.40;99.90
35246;DHT22;21379;50.962;6.960;2022-11-20T11:14:43;5.40;99.90
35246;DHT22;21379;50.962;6.960;2022-11-20T11:17:24;5.50;99.90
35246;DHT22;21379;50.962;6.960;2022-11-20T11:20:06;5.40;99.90
35246;DHT22;21379;50.962;6.960;2022-11-20T11:22:44;5.50;99.90
35246;DHT22;21379;50.962;6.960;2022-11-20T11:25:24;5.50;99.90
35246;DHT22;21379;50.962;6.960;2022-11-20T11:27:51;5.50;99.90
35246;DHT22;21379;50.962;6.960;2022-11-20T11:30:20;5.60;99.90
35246;DHT22;21379;50.962;6.960;2022-11-20T11:32:47;5.60;99.90
35246;DHT22;21379;50.962;6.960;2022-11-20T11:35:24;5.70;99.90
35246;DHT22;21379;50.962;6.960;2022-11-20T11:38:03;5.60;99.90
35246;DHT22;21379;50.962;6.960;2022-11-20T11:40:35;5.60;99.90
35246;DHT22;21379;50.962;6.960;2022-11-20T11:43:05;5.60;99.90
35246;DHT22;21379;50.962;6.960;2022-11-20T11:45:54;5.60;99.90
35246;DHT22;21379;50.962;6.960;2022-11-20T11:48:20;5.60;99.90
35246;DHT22;21379;50.962;6.960;2022-11-20T11:50:50;5.60;99.90
35246;DHT22;21379;50.962;6.960;2022-11-20T11:53:19;5.70;99.90
35246;DHT22;21379;50.962;6.960;2022-11-20T11:55:54;5.60;99.90
35246;DHT22;21379;50.962;6.960;2022-11-20T11:58:40;5.60;99.90
35246;DHT22;21379;50.962;6.960;2022-11-20T12:01:24;5.60;99.90
35246;DHT22;21379;50.962;6.960;2022-11-20T12:04:02;5.60;99.90
35246;DHT22;21379;50.962;6.960;2022-11-20T12:06:32;5.60;99.90
35246;DHT22;21379;50.962;6.960;2022-11-20T12:09:03;5.60;99.90
35246;DHT22;21379;50.962;6.960;2022-11-20T12:11:33;5.60;99.90
35246;DHT22;21379;50.962;6.960;2022-11-20T12:14:08;5.60;99.90
35246;DHT22;21379;50.962;6.960;2022-11-20T12:16:38;5.70;99.90
35246;DHT22;21379;50.962;6.960;2022-11-20T12:19:09;5.70;99.90
35246;DHT22;21379;50.962;6.960;2022-11-20T12:21:47;5.70;99.90
35246;DHT22;21379;50.962;6.960;2022-11-20T12:24:29;5.70;99.90
35246;DHT22;21379;50.962;6.960;2022-11-20T12:27:09;5.70;99.90
35246;DHT22;21379;50.962;6.960;2022-11-20T12:29:48;5.70;99.90
35246;DHT22;21379;50.962;6.960;2022-11-20T12:32:44;5.80;99.90
35246;DHT22;21379;50.962;6.960;2022-11-20T12:35:30;5.70;99.90
35246;DHT22;21379;50.962;6.960;2022-11-20T12:38:20;5.70;99.90
35246;DHT22;21379;50.962;6.960;2022-11-20T12:40:57;5.80;99.90
35246;DHT22;21379;50.962;6.960;2022-11-20T12:43:30;5.80;99.90
35246;DHT22;21379;50.962;6.960;2022-11-20T12:46:23;5.90;99.90
35246;DHT22;21379;50.962;6.960;2022-11-20T12:49:12;5.90;99.90
35246;DHT22;21379;50.962;6.960;2022-11-20T12:51:57;5.90;99.90
35246;DHT22;21379;50.962;6.960;2022-11-20T12:54:46;5.90;99.90
35246;DHT22;21379;50.962;6.960;2022-11-20T12:57:23;5.90;99.90
35246;DHT22;21379;50.962;6.960;2022-11-20T13:00:01;6.10;99.90
35246;DHT22;21379;50.962;6.960;2022-11-20T13:02:37;6.20;99.90
35246;DHT22;21379;50.962;6.960;2022-11-20T13:05:19;6.30;99.90
35246;DHT22;21379;50.962;6.960;2022-11-20T13:07:47;6.50;99.90
35246;DHT22;21379;50.962;6.960;2022-11-20T13:10:21;6.40;99.90
35246;DHT22;21379;50.962;6.960;2022-11-20T13:12:55;6.40;99.90
35246;DHT22;21379;50.962;6.960;2022-11-20T13:15:40;6.50;99.90
35246;DHT22;21379;50.962;6.960;2022-11-20T13:18:11;6.50;99.90
35246;DHT22;21379;50.962;6.960;2022-11-20T13:20:42;6.60;99.90
35246;DHT22;21379;50.962;6.960;2022-11-20T13:23:09;6.50;99.90
35246;DHT22;21379;50.962;6.960;2022-11-20T13:25:39;6.50;99.90
35246;DHT22;21379;50.962;6.960;2022-11-20T13:28:27;6.50;99.90
35246;DHT22;21379;50.962;6.960;2022-11-20T13:30:56;6.60;99.90
35246;DHT22;21379;50.962;6.960;2022-11-20T13:33:27;6.50;99.90
35246;DHT22;21379;50.962;6.960;2022-11-20T13:35:56;6.60;99.90
35246;DHT22;21379;50.962;6.960;2022-11-20T13:38:24;6.60;99.90
35246;DHT22;21379;50.962;6.960;2022-11-20T13:40:54;6.60;99.90
35246;DHT22;21379;50.962;6.960;2022-11-20T13:43:34;6.60;99.90
35246;DHT22;21379;50.962;6.960;2022-11-20T13:46:04;6.60;99.90
35246;DHT22;21379;50.962;6.960;2022-11-20T13:48:34;6.60;99.90
35246;DHT22;21379;50.962;6.960;2022-11-20T13:51:10;6.60;99.90
35246;DHT22;21379;50.962;6.960;2022-11-20T13:54:01;6.60;99.90
35246;DHT22;21379;50.962;6.960;2022-11-20T13:56:40;6.60;99.90
35246;DHT22;21379;50.962;6.960;2022-11-20T13:59:18;6.70;99.90
35246;DHT22;21379;50.962;6.960;2022-11-20T14:01:50;6.70;99.90
35246;DHT22;21379;50.962;6.960;2022-11-20T14:04:22;6.80;99.90
35246;DHT22;21379;50.962;6.960;2022-11-20T14:06:52;6.80;99.90
35246;DHT22;21379;50.962;6.960;2022-11-20T14:09:29;6.70;99.90
35246;DHT22;21379;50.962;6.960;2022-11-20T14:11:58;6.60;99.90
35246;DHT22;21379;50.962;6.960;2022-11-20T14:14:27;6.50;99.90
35246;DHT22;21379;50.962;6.960;2022-11-20T14:17:06;6.50;99.90
35246;DHT22;21379;50.962;6.960;2022-11-20T14:19:33;6.50;99.90
35246;DHT22;21379;50.962;6.960;2022-11-20T14:22:18;6.50;99.90
35246;DHT22;21379;50.962;6.960;2022-11-20T14:24:46;6.50;99.90
35246;DHT22;21379;50.962;6.960;2022-11-20T14:27:19;6.50;99.90
35246;DHT22;21379;50.962;6.960;2022-11-20T14:29:49;6.50;99.90
35246;DHT22;21379;50.962;6.960;2022-11-20T14:32:18;6.50;99.90
35246;DHT22;21379;50.962;6.960;2022-11-20T14:34:48;6.50;99.90
35246;DHT22;21379;50.962;6.960;2022-11-20T14:37:19;6.50;99.90
35246;DHT22;21379;50.962;6.960;2022-11-20T14:39:50;6.50;99.90
35246;DHT22;21379;50.962;6.960;2022-11-20T14:42:21;6.50;99.90
35246;DHT22;21379;50.962;6.960;2022-11-20T14:44:49;6.50;99.90
35246;DHT22;21379;50.962;6.960;2022-11-20T14:47:19;6.50;99.90
35246;DHT22;21379;50.962;6.960;2022-11-20T14:49:48;6.50;99.90
35246;DHT22;21379;50.962;6.960;2022-11-20T14:52:16;6.50;99.90
35246;DHT22;21379;50.962;6.960;2022-11-20T14:54:44;6.50;99.90
35246;DHT22;21379;50.962;6.960;2022-11-20T14:57:23;6.50;99.90
35246;DHT22;21379;50.962;6.960;2022-11-20T14:59:51;6.50;99.90
35246;DHT22;21379;50.962;6.960;2022-11-20T15:02:18;6.50;99.90
35246;DHT22;21379;50.962;6.960;2022-11-20T15:04:46;6.40;99.90
35246;DHT22;21379;50.962;6.960;2022-11-20T15:07:23;6.50;99.90
35246;DHT22;21379;50.962;6.960;2022-11-20T15:09:59;6.50;99.90
35246;DHT22;21379;50.962;6.960;2022-11-20T15:12:28;6.40;99.90
35246;DHT22;21379;50.962;6.960;2022-11-20T15:14:56;6.50;99.90
35246;DHT22;21379;50.962;6.960;2022-11-20T15:17:23;6.40;99.90
35246;DHT22;21379;50.962;6.960;2022-11-20T15:19:50;6.50;99.90
35246;DHT22;21379;50.962;6.960;2022-11-20T15:22:17;6.50;99.90
35246;DHT22;21379;50.962;6.960;2022-11-20T15:24:44;6.50;99.90
35246;DHT22;21379;50.962;6.960;2022-11-20T15:27:11;6.50;99.90
35246;DHT22;21379;50.962;6.960;2022-11-20T15:29:40;6.40;99.90
35246;DHT22;21379;50.962;6.960;2022-11-20T15:32:08;6.40;99.90
35246;DHT22;21379;50.962;6.960;2022-11-20T15:34:35;6.30;99.90
35246;DHT22;21379;50.962;6.960;2022-11-20T15:37:01;6.30;99.90
35246;DHT22;21379;50.962;6.960;2022-11-20T15:39:28;6.30;99.90
35246;DHT22;21379;50.962;6.960;2022-11-20T15:41:55;6.20;99.90
35246;DHT22;21379;50.962;6.960;2022-11-20T15:44:22;6.20;99.90
35246;DHT22;21379;50.962;6.960;2022-11-20T15:46:50;6.20;99.90
35246;DHT22;21379;50.962;6.960;2022-11-20T15:49:17;6.20;99.90
35246;DHT22;21379;50.962;6.960;2022-11-20T15:51:48;6.20;99.90
35246;DHT22;21379;50.962;6.960;2022-11-20T15:54:16;6.20;99.90
35246;DHT22;21379;50.962;6.960;2022-11-20T15:56:45;6.20;99.90
35246;DHT22;21379;50.962;6.960;2022-11-20T15:59:12;6.20;99.90
35246;DHT22;21379;50.962;6.960;2022-11-20T16:01:40;6.20;99.90
35246;DHT22;21379;50.962;6.960;2022-11-20T16:04:10;6.20;99.90
35246;DHT22;21379;50.962;6.960;2022-11-20T16:06:38;6.20;99.90
35246;DHT22;21379;50.962;6.960;2022-11-20T16:09:04;6.20;99.90